Time;durP1;ratioP1;P1;durP2;ratioP2;P2;SDS_P1;SDS_P2;PMS_P1;PMS_P2;Temp;Humidity;BMP_temperature;BMP_pressure;BME280_temperature;BME280_humidity;BME280_pressure;Samples;Min_cycle;Max_cycle;Signal;HPM_P1;HPM_P2
2022/08/17 00:00:19;;;;;;;34.30;25.35;;;18.70;99.90;;;;;;5056683;28;20018;-78
2022/08/17 00:03:13;;;;;;;37.53;27.20;;;18.70;99.90;;;;;;5056971;28;20029;-78
2022/08/17 00:06:11;;;;;;;35.60;26.45;;;18.60;99.90;;;;;;5056837;28;20044;-78
2022/08/17 00:08:52;;;;;;;39.55;27.20;;;18.60;99.90;;;;;;5051618;28;20028;-78
2022/08/17 00:11:27;;;;;;;38.50;28.10;;;18.50;99.90;;;;;;5048979;28;20025;-78
2022/08/17 00:13:58;;;;;;;37.83;27.33;;;18.60;99.90;;;;;;5056867;28;20155;-78
2022/08/17 00:16:30;;;;;;;41.42;28.17;;;18.40;99.90;;;;;;5056744;28;20076;-78
2022/08/17 00:19:00;;;;;;;41.45;28.65;;;18.40;99.90;;;;;;5056750;28;20041;-78
2022/08/17 00:21:27;;;;;;;39.95;27.63;;;18.40;99.90;;;;;;5057013;28;20017;-78
2022/08/17 00:23:53;;;;;;;43.55;28.63;;;18.40;99.90;;;;;;5056624;28;20025;-78
2022/08/17 00:26:20;;;;;;;37.50;27.20;;;18.40;99.90;;;;;;5056404;28;20025;-78
2022/08/17 00:28:46;;;;;;;37.03;25.63;;;18.40;99.90;;;;;;5056705;28;20009;-79
2022/08/17 00:31:12;;;;;;;38.28;27.50;;;18.40;99.90;;;;;;5056341;28;20025;-78
2022/08/17 00:33:39;;;;;;;40.83;28.10;;;18.40;99.90;;;;;;5056377;28;20041;-78
2022/08/17 00:36:06;;;;;;;40.17;27.70;;;18.40;99.90;;;;;;5056463;28;20068;-78
2022/08/17 00:38:33;;;;;;;40.15;28.02;;;18.40;99.90;;;;;;5056439;28;20025;-78
2022/08/17 00:41:02;;;;;;;39.08;26.77;;;18.40;99.90;;;;;;5058066;28;20037;-78
2022/08/17 00:43:42;;;;;;;39.80;29.00;;;18.40;99.90;;;;;;5060417;28;20049;-78
2022/08/17 00:46:15;;;;;;;40.13;27.73;;;18.40;99.90;;;;;;5060476;28;20014;-79
2022/08/17 00:48:41;;;;;;;43.47;30.30;;;18.40;99.90;;;;;;5053205;28;20038;-78
2022/08/17 00:51:18;;;;;;;42.00;28.05;;;18.40;99.90;;;;;;5060529;28;20028;-78
2022/08/17 00:53:48;;;;;;;39.35;27.77;;;18.40;99.90;;;;;;5060397;28;20013;-78
2022/08/17 00:56:25;;;;;;;39.78;28.42;;;18.20;99.90;;;;;;5060206;28;20094;-79
2022/08/17 00:58:53;;;;;;;40.33;27.80;;;18.40;99.90;;;;;;5053849;28;20010;-78
2022/08/17 01:01:19;;;;;;;37.55;27.17;;;18.50;99.90;;;;;;5060069;28;20021;-78
2022/08/17 01:03:45;;;;;;;36.03;26.42;;;18.40;99.90;;;;;;5060270;28;20113;-79
2022/08/17 01:06:10;;;;;;;38.67;28.02;;;18.50;99.90;;;;;;5060018;28;20029;-78
2022/08/17 01:08:37;;;;;;;37.38;26.15;;;18.50;99.90;;;;;;5057538;28;20053;-78
2022/08/17 01:11:04;;;;;;;34.83;24.77;;;18.50;99.90;;;;;;5054280;28;20026;-78
2022/08/17 01:13:35;;;;;;;38.03;26.63;;;18.50;99.90;;;;;;5059937;28;20021;-78
2022/08/17 01:16:08;;;;;;;37.03;26.95;;;18.50;99.90;;;;;;5059462;28;20029;-78
2022/08/17 01:18:34;;;;;;;39.70;27.13;;;18.50;99.90;;;;;;5059770;28;20022;-78
2022/08/17 01:21:08;;;;;;;41.00;26.45;;;18.50;99.90;;;;;;5059484;28;20018;-78
2022/08/17 01:23:34;;;;;;;36.10;27.02;;;18.40;99.90;;;;;;5059708;28;20025;-78
2022/08/17 01:26:01;;;;;;;42.38;27.30;;;18.40;99.90;;;;;;5059330;28;20017;-78
2022/08/17 01:28:30;;;;;;;38.03;27.20;;;18.30;99.90;;;;;;5059835;28;20024;-79
2022/08/17 01:30:58;;;;;;;36.05;26.67;;;18.20;99.90;;;;;;5051168;28;20006;-78
2022/08/17 01:33:24;;;;;;;41.38;27.75;;;18.10;99.90;;;;;;5059197;28;20109;-78
2022/08/17 01:35:49;;;;;;;42.42;27.77;;;18.20;99.90;;;;;;5059080;28;20055;-78
2022/08/17 01:38:16;;;;;;;42.35;26.83;;;18.10;99.90;;;;;;5050820;28;20036;-78
2022/08/17 01:40:57;;;;;;;41.25;29.00;;;17.90;99.90;;;;;;5059231;28;20028;-78
2022/08/17 01:43:37;;;;;;;33.33;23.80;;;18.00;99.90;;;;;;5059360;28;20022;-78
2022/08/17 01:46:03;;;;;;;39.47;26.27;;;17.90;99.90;;;;;;5051123;28;20021;-78
2022/08/17 01:48:31;;;;;;;36.85;24.80;;;17.80;99.90;;;;;;5059305;28;20031;-78
2022/08/17 01:50:57;;;;;;;52.83;23.63;;;17.70;99.90;;;;;;5059191;28;20044;-78
2022/08/17 01:53:38;;;;;;;36.83;25.10;;;17.70;99.90;;;;;;5057764;28;20029;-78
2022/08/17 01:56:13;;;;;;;35.38;24.55;;;17.70;99.90;;;;;;5059179;28;20021;-78
2022/08/17 01:58:40;;;;;;;34.67;24.77;;;17.60;99.90;;;;;;5059159;28;20018;-78
2022/08/17 02:01:08;;;;;;;34.45;23.95;;;17.50;99.90;;;;;;5059195;28;20021;-78
2022/08/17 02:03:35;;;;;;;39.13;23.17;;;17.50;99.90;;;;;;5059121;28;20021;-78
2022/08/17 02:06:02;;;;;;;199.20;25.95;;;17.60;99.90;;;;;;5058837;28;20021;-78
2022/08/17 02:08:28;;;;;;;270.33;24.90;;;17.60;99.90;;;;;;5059093;28;20048;-78
2022/08/17 02:10:54;;;;;;;270.20;25.05;;;17.60;99.90;;;;;;5058739;28;20022;-78
2022/08/17 02:13:20;;;;;;;343.02;26.30;;;17.60;99.90;;;;;;5058978;28;20032;-78
2022/08/17 02:15:46;;;;;;;399.73;30.80;;;17.60;99.90;;;;;;5058449;28;20030;-78
2022/08/17 02:18:13;;;;;;;412.85;30.15;;;17.60;99.90;;;;;;5058376;28;20018;-78
2022/08/17 02:20:41;;;;;;;307.27;27.40;;;17.60;99.90;;;;;;5058545;28;20021;-78
2022/08/17 02:23:09;;;;;;;375.88;30.90;;;17.70;99.90;;;;;;5056073;28;20028;-78
2022/08/17 02:25:35;;;;;;;265.80;28.73;;;17.60;99.90;;;;;;5052935;28;20041;-78
2022/08/17 02:28:02;;;;;;;220.55;27.90;;;17.60;99.90;;;;;;5058457;28;20021;-78
2022/08/17 02:30:28;;;;;;;73.82;26.33;;;17.60;99.90;;;;;;5058484;28;20022;-78
2022/08/17 02:32:54;;;;;;;40.63;24.98;;;17.60;99.90;;;;;;5058296;28;20020;-79
2022/08/17 02:35:23;;;;;;;159.27;22.90;;;17.60;99.90;;;;;;5058010;28;20038;-78
2022/08/17 02:37:49;;;;;;;190.32;22.63;;;17.60;99.90;;;;;;5058238;28;20025;-78
2022/08/17 02:40:16;;;;;;;169.45;23.90;;;17.60;99.90;;;;;;5047082;28;20053;-78
2022/08/17 02:42:43;;;;;;;246.93;25.25;;;17.50;99.90;;;;;;5044683;28;20089;-78
2022/08/17 02:45:12;;;;;;;92.20;21.27;;;17.50;99.90;;;;;;5058129;28;20037;-78
2022/08/17 02:47:39;;;;;;;117.90;18.77;;;17.50;99.90;;;;;;5058190;28;20026;-78
2022/08/17 02:50:06;;;;;;;224.88;22.05;;;17.50;99.90;;;;;;5058066;28;20081;-78
2022/08/17 02:52:40;;;;;;;256.77;24.00;;;17.50;99.90;;;;;;5058131;28;20014;-78
2022/08/17 02:55:10;;;;;;;221.43;22.50;;;17.40;99.90;;;;;;5057877;28;20045;-78
2022/08/17 02:57:36;;;;;;;87.43;21.17;;;17.40;99.90;;;;;;5057977;28;20025;-78
2022/08/17 03:00:05;;;;;;;101.10;20.40;;;17.40;99.90;;;;;;5058046;28;20077;-78
2022/08/17 03:02:40;;;;;;;51.53;20.77;;;17.30;99.90;;;;;;5057711;28;20010;-78
2022/08/17 03:05:08;;;;;;;87.43;21.90;;;17.30;99.90;;;;;;5057340;28;20026;-78
2022/08/17 03:07:35;;;;;;;72.13;24.85;;;17.50;99.90;;;;;;5057769;28;20037;-78
2022/08/17 03:10:01;;;;;;;71.93;25.67;;;17.60;99.90;;;;;;5057687;28;20029;-79
2022/08/17 03:12:31;;;;;;;97.70;28.20;;;17.50;99.90;;;;;;5057696;28;20022;-77
2022/08/17 03:14:57;;;;;;;147.95;28.00;;;17.60;99.90;;;;;;5057637;28;20029;-78
2022/08/17 03:17:22;;;;;;;183.70;32.55;;;17.60;99.90;;;;;;5057651;28;20068;-78
2022/08/17 03:19:48;;;;;;;94.95;28.92;;;17.60;99.90;;;;;;5057660;28;20077;-78
2022/08/17 03:22:13;;;;;;;294.25;35.78;;;17.50;99.90;;;;;;5057447;28;20028;-78
2022/08/17 03:24:39;;;;;;;266.17;33.35;;;17.50;99.90;;;;;;5057574;28;20041;-78
2022/08/17 03:27:04;;;;;;;69.90;26.85;;;17.60;99.90;;;;;;5057495;28;20025;-78
2022/08/17 03:29:30;;;;;;;102.63;26.40;;;17.50;99.90;;;;;;5057160;28;20061;-78
2022/08/17 03:31:56;;;;;;;204.35;27.35;;;17.50;99.90;;;;;;5057264;28;20040;-78
2022/08/17 03:34:21;;;;;;;268.58;30.40;;;17.50;99.90;;;;;;5056827;28;20056;-78
2022/08/17 03:36:47;;;;;;;175.23;27.42;;;17.50;99.90;;;;;;5057253;28;20026;-78
2022/08/17 03:39:12;;;;;;;179.40;25.65;;;17.50;99.90;;;;;;5057119;28;20047;-78
2022/08/17 03:41:38;;;;;;;178.02;27.33;;;17.50;99.90;;;;;;5057284;28;20018;-78
2022/08/17 03:44:03;;;;;;;48.20;23.00;;;17.50;99.90;;;;;;5049990;28;20033;-78
2022/08/17 03:57:28;;;;;;;41.33;25.08;;;17.50;99.90;;;;;;5056803;28;20083;-78
2022/08/17 03:59:54;;;;;;;40.30;24.95;;;17.60;99.90;;;;;;5056825;28;20009;-78
2022/08/17 04:02:29;;;;;;;33.17;23.35;;;17.60;99.90;;;;;;5056596;28;20024;-78
2022/08/17 04:04:55;;;;;;;33.10;24.27;;;17.60;99.90;;;;;;5050312;28;20033;-78
2022/08/17 04:07:24;;;;;;;34.10;22.63;;;17.60;99.90;;;;;;5056792;28;20017;-78
2022/08/17 04:09:50;;;;;;;43.13;23.70;;;17.60;99.90;;;;;;5049196;28;20033;-78
2022/08/17 04:12:19;;;;;;;80.97;24.05;;;17.60;99.90;;;;;;5056895;28;20037;-78
2022/08/17 04:14:45;;;;;;;73.82;25.33;;;17.60;99.90;;;;;;5055836;28;20018;-78
2022/08/17 04:17:10;;;;;;;51.30;24.20;;;17.70;99.90;;;;;;5056646;28;20175;-78
2022/08/17 04:19:36;;;;;;;55.42;24.80;;;17.70;99.90;;;;;;5056508;28;20022;-78
2022/08/17 04:22:04;;;;;;;50.92;26.13;;;17.70;99.90;;;;;;5051771;28;20014;-78
2022/08/17 04:24:31;;;;;;;70.55;26.65;;;17.80;99.90;;;;;;5053826;28;20042;-78
2022/08/17 04:26:57;;;;;;;44.58;24.80;;;17.90;99.90;;;;;;5056656;28;20014;-78
2022/08/17 04:29:24;;;;;;;50.22;26.50;;;17.90;99.90;;;;;;5056575;28;20026;-77
2022/08/17 04:31:50;;;;;;;39.80;28.35;;;18.00;99.90;;;;;;5056517;28;20013;-78
2022/08/17 04:34:16;;;;;;;46.22;30.50;;;18.10;99.90;;;;;;5056184;28;20041;-78
2022/08/17 04:36:42;;;;;;;46.00;29.63;;;18.20;99.90;;;;;;5056426;28;20079;-78
2022/08/17 04:39:08;;;;;;;38.60;25.90;;;18.20;99.90;;;;;;5056366;28;20010;-78
2022/08/17 04:44:18;;;;;;;45.88;29.80;;;18.30;99.90;;;;;;5056611;28;20039;-78
2022/08/17 04:46:43;;;;;;;41.95;30.00;;;18.20;99.90;;;;;;5054697;28;20030;-78
2022/08/17 04:49:10;;;;;;;45.22;29.98;;;18.30;99.90;;;;;;5049991;28;20018;-78
2022/08/17 04:51:40;;;;;;;42.70;29.30;;;18.40;99.90;;;;;;5056354;28;20041;-78
2022/08/17 04:54:20;;;;;;;49.10;31.13;;;18.40;99.90;;;;;;5056368;28;20025;-77
2022/08/17 04:56:45;;;;;;;;;;;18.60;99.90;;;;;;5056647;28;20045;-78
2022/08/17 04:59:15;;;;;;;43.80;28.67;;;18.60;99.90;;;;;;5056054;28;19928;-78
2022/08/17 05:01:42;;;;;;;45.83;30.55;;;18.40;99.90;;;;;;5056035;28;20085;-78
2022/08/17 05:04:13;;;;;;;48.00;31.00;;;18.60;99.90;;;;;;5056034;28;20014;-78
2022/08/17 05:06:38;;;;;;;49.40;31.95;;;18.40;99.90;;;;;;5056330;28;20030;-78
2022/08/17 05:09:04;;;;;;;50.75;33.05;;;18.70;99.90;;;;;;5056163;28;20065;-78
2022/08/17 05:11:31;;;;;;;48.15;31.80;;;18.70;99.90;;;;;;5056125;28;20033;-78
2022/08/17 05:13:58;;;;;;;52.92;31.70;;;18.70;99.90;;;;;;5056034;28;20032;-78
2022/08/17 05:16:26;;;;;;;52.80;33.05;;;18.80;99.90;;;;;;5056164;28;20092;-78
2022/08/17 05:18:51;;;;;;;51.65;30.77;;;18.90;99.90;;;;;;5054661;28;20094;-77
2022/08/17 05:21:18;;;;;;;49.00;30.55;;;18.90;99.90;;;;;;5049627;28;20018;-78
2022/08/17 05:23:45;;;;;;;48.88;31.98;;;18.90;99.90;;;;;;5055996;28;20029;-78
2022/08/17 05:26:19;;;;;;;52.65;31.30;;;18.90;99.90;;;;;;5056271;28;20040;-78
2022/08/17 05:28:45;;;;;;;47.80;32.10;;;19.00;99.90;;;;;;5059740;28;20041;-78
2022/08/17 05:31:11;;;;;;;49.65;32.90;;;19.00;99.90;;;;;;5059397;28;20069;-78
2022/08/17 05:33:39;;;;;;;50.55;33.55;;;19.00;99.90;;;;;;5053509;28;20042;-78
2022/08/17 05:36:07;;;;;;;54.45;32.08;;;19.00;99.90;;;;;;5053646;28;20059;-78
2022/08/17 05:38:34;;;;;;;54.72;33.90;;;19.10;99.90;;;;;;5048921;28;20041;-77
2022/08/17 05:41:07;;;;;;;54.47;35.25;;;19.10;99.90;;;;;;5059022;28;20021;-78
2022/08/17 05:43:36;;;;;;;54.92;34.28;;;19.20;99.90;;;;;;5056614;28;20018;-78
2022/08/17 05:46:20;;;;;;;52.38;34.25;;;19.20;99.90;;;;;;5058592;28;20013;-79
2022/08/17 05:48:50;;;;;;;57.15;34.67;;;19.30;99.90;;;;;;5050079;28;20025;-78
2022/08/17 05:51:36;;;;;;;51.92;35.03;;;19.40;99.90;;;;;;5058952;28;20029;-77
2022/08/17 05:54:16;;;;;;;51.47;32.40;;;19.40;99.90;;;;;;5056496;28;20105;-78
2022/08/17 05:56:48;;;;;;;;;;;19.40;99.90;;;;;;5052887;28;20037;-78
2022/08/17 05:59:32;;;;;;;47.35;32.53;;;19.50;99.90;;;;;;5053422;28;19902;-78
2022/08/17 06:02:37;;;;;;;48.88;32.58;;;19.50;99.90;;;;;;5056746;28;20049;-78
2022/08/17 06:05:14;;;;;;;49.45;32.80;;;19.60;99.90;;;;;;5041447;28;20093;-78
2022/08/17 06:07:58;;;;;;;50.22;33.20;;;19.60;99.90;;;;;;5059031;28;20022;-78
2022/08/17 06:10:49;;;;;;;50.47;33.05;;;19.60;99.90;;;;;;5050878;28;20108;-77
2022/08/17 06:13:18;;;;;;;54.42;36.30;;;19.60;99.90;;;;;;5058683;28;20018;-78
2022/08/17 06:16:04;;;;;;;51.65;34.13;;;19.60;99.90;;;;;;5058844;28;20048;-78
2022/08/17 06:18:46;;;;;;;59.38;36.83;;;19.60;99.90;;;;;;5050946;28;20024;-78
2022/08/17 06:21:15;;;;;;;59.05;38.13;;;19.60;99.90;;;;;;5058387;28;20022;-78
2022/08/17 06:24:05;;;;;;;58.95;38.80;;;19.50;99.90;;;;;;5057843;28;20044;-78
2022/08/17 06:26:36;;;;;;;63.50;39.17;;;19.60;99.90;;;;;;5050903;28;20026;-78
2022/08/17 06:29:23;;;;;;;59.65;37.55;;;19.50;99.90;;;;;;5058697;28;20039;-78
2022/08/17 06:31:49;;;;;;;61.63;39.30;;;19.50;99.90;;;;;;5053120;28;20026;-78
2022/08/17 06:34:16;;;;;;;55.92;36.40;;;19.40;99.90;;;;;;5056993;28;20057;-79
2022/08/17 06:37:14;;;;;;;54.10;33.10;;;19.50;99.90;;;;;;5055628;28;20025;-79
2022/08/17 06:40:01;;;;;;;56.03;34.40;;;19.50;99.90;;;;;;5035459;28;20060;-79
2022/08/17 06:42:46;;;;;;;49.53;33.33;;;19.50;99.90;;;;;;5047819;28;20080;-79
2022/08/17 06:45:23;;;;;;;57.50;35.60;;;19.40;99.90;;;;;;5044187;28;20423;-79
2022/08/17 06:47:58;;;;;;;50.13;32.15;;;19.50;99.90;;;;;;5044244;28;20037;-79
2022/08/17 06:50:42;;;;;;;50.08;31.63;;;19.50;99.90;;;;;;5043851;28;20107;-80
2022/08/17 06:53:30;;;;;;;45.95;29.77;;;19.50;99.90;;;;;;5035388;28;20043;-79
2022/08/17 06:56:22;;;;;;;45.65;31.40;;;19.50;99.90;;;;;;5030146;28;20033;-79
2022/08/17 06:58:48;;;;;;;47.45;31.05;;;19.50;99.90;;;;;;5041048;28;20037;-79
2022/08/17 07:01:19;;;;;;;48.17;32.20;;;19.50;99.90;;;;;;5045674;28;20033;-78
2022/08/17 07:04:02;;;;;;;51.33;33.10;;;19.60;99.90;;;;;;5046040;28;20085;-78
2022/08/17 07:06:51;;;;;;;46.97;32.22;;;19.60;99.90;;;;;;5033925;28;20021;-79
2022/08/17 07:09:32;;;;;;;44.13;28.90;;;19.50;99.90;;;;;;5044141;28;20062;-78
2022/08/17 07:12:08;;;;;;;46.25;33.03;;;19.70;99.90;;;;;;5042795;28;20535;-79
2022/08/17 07:14:41;;;;;;;42.20;29.30;;;19.90;99.90;;;;;;5041297;28;20018;-79
2022/08/17 07:17:14;;;;;;;45.83;33.03;;;20.00;99.90;;;;;;5034294;28;20037;-79
2022/08/17 07:19:44;;;;;;;45.30;30.40;;;20.10;99.90;;;;;;5038281;28;20025;-79
2022/08/17 07:22:47;;;;;;;39.17;26.88;;;20.20;99.90;;;;;;5038679;28;20029;-79
2022/08/17 07:25:18;;;;;;;37.47;26.20;;;20.20;99.90;;;;;;5033590;28;20029;-79
2022/08/17 07:27:55;;;;;;;36.92;27.02;;;20.10;99.90;;;;;;5037616;28;20439;-79
2022/08/17 07:30:24;;;;;;;41.60;28.95;;;20.00;99.90;;;;;;5037830;28;20063;-80
2022/08/17 07:32:58;;;;;;;35.50;26.13;;;20.00;99.90;;;;;;5036709;28;20030;-79
2022/08/17 07:35:46;;;;;;;38.53;28.20;;;20.00;99.90;;;;;;5036727;28;20508;-79
2022/08/17 07:38:18;;;;;;;42.83;31.73;;;20.00;99.90;;;;;;5035197;28;20026;-79
2022/08/17 07:41:04;;;;;;;40.58;29.98;;;20.00;99.90;;;;;;5035379;28;20068;-79
2022/08/17 07:43:36;;;;;;;38.42;29.50;;;19.90;99.90;;;;;;5035124;28;20028;-79
2022/08/17 07:49:18;;;;;;;38.42;28.90;;;20.00;99.90;;;;;;5040732;28;20164;-79
2022/08/17 07:51:47;;;;;;;38.10;26.92;;;19.80;99.90;;;;;;5038119;28;20097;-81
2022/08/17 07:54:17;;;;;;;43.78;31.20;;;19.70;99.90;;;;;;5048059;28;20026;-80
2022/08/17 07:56:53;;;;;;;39.25;29.58;;;19.80;99.90;;;;;;5041371;28;20497;-81
2022/08/17 07:59:25;;;;;;;17.80;14.15;;;19.70;99.90;;;;;;5046261;28;20059;-81
2022/08/17 08:02:01;;;;;;;9.80;8.80;;;19.30;71.50;;;;;;5046932;28;20037;-80
2022/08/17 08:04:26;;;;;;;10.32;9.38;;;18.90;1.00;;;;;;5047416;28;20025;-80
2022/08/17 08:06:54;;;;;;;17.67;13.48;;;18.80;1.00;;;;;;5041583;28;20021;-81
2022/08/17 08:09:34;;;;;;;12.88;11.57;;;18.90;70.90;;;;;;5045432;28;20018;-83
2022/08/17 08:12:23;;;;;;;13.88;12.00;;;18.90;99.90;;;;;;5042682;28;20172;-81
2022/08/17 08:15:08;;;;;;;13.90;12.55;;;18.80;99.90;;;;;;5044821;28;20040;-80
2022/08/17 08:17:46;;;;;;;19.30;17.02;;;18.90;89.70;;;;;;5044358;28;20044;-79
2022/08/17 08:20:12;;;;;;;32.30;24.45;;;18.90;99.90;;;;;;5054037;28;20021;-79
2022/08/17 08:22:51;;;;;;;37.63;27.38;;;19.00;99.90;;;;;;5055026;28;20021;-79
2022/08/17 08:25:17;;;;;;;35.88;26.83;;;19.10;99.90;;;;;;5052822;28;20022;-78
2022/08/17 08:28:21;;;;;;;32.30;25.00;;;19.20;99.90;;;;;;5053124;28;20473;-79
2022/08/17 08:30:57;;;;;;;36.40;26.83;;;19.10;99.90;;;;;;5049543;28;20029;-79
2022/08/17 08:33:32;;;;;;;28.15;21.52;;;19.30;99.90;;;;;;5053943;28;20014;-78
2022/08/17 08:36:22;;;;;;;30.63;22.98;;;19.20;99.90;;;;;;5052372;28;20065;-79
2022/08/17 08:38:58;;;;;;;32.15;23.35;;;19.30;99.90;;;;;;5049559;28;20033;-78
2022/08/17 08:41:43;;;;;;;21.17;16.23;;;19.30;99.90;;;;;;5050582;28;20089;-80
2022/08/17 08:44:30;;;;;;;24.73;17.17;;;19.10;99.90;;;;;;5047986;28;20009;-79
2022/08/17 08:47:18;;;;;;;22.20;15.82;;;19.00;99.90;;;;;;5045986;28;20026;-79
2022/08/17 08:49:52;;;;;;;19.38;14.88;;;18.80;90.80;;;;;;5052863;28;20017;-80
2022/08/17 08:52:27;;;;;;;22.08;17.02;;;18.70;1.00;;;;;;5042723;28;20116;-80
2022/08/17 08:55:02;;;;;;;22.65;18.45;;;18.60;1.00;;;;;;5055378;28;20010;-80
2022/08/17 08:57:35;;;;;;;21.55;16.15;;;18.60;1.00;;;;;;5053202;28;20048;-80
2022/08/17 09:00:17;;;;;;;22.33;16.42;;;18.70;1.00;;;;;;5056165;28;20014;-79
2022/08/17 09:02:49;;;;;;;25.10;18.40;;;18.70;19.60;;;;;;5057991;28;20014;-78
2022/08/17 09:05:44;;;;;;;25.60;19.30;;;18.60;28.50;;;;;;5050379;28;20022;-79
2022/08/17 09:08:44;;;;;;;25.15;19.10;;;18.50;85.10;;;;;;5047227;28;20032;-81
2022/08/17 09:11:27;;;;;;;26.67;18.33;;;18.40;99.90;;;;;;5054889;28;20032;-81
2022/08/17 09:14:17;;;;;;;21.58;18.10;;;18.30;77.40;;;;;;5055195;28;20049;-81
2022/08/17 09:17:03;;;;;;;22.30;16.88;;;18.10;99.90;;;;;;5054884;28;20076;-80
2022/08/17 09:20:15;;;;;;;21.48;13.93;;;18.00;99.90;;;;;;5055062;28;20054;-79
2022/08/17 09:22:51;;;;;;;12.63;10.40;;;17.90;99.90;;;;;;5045830;28;20021;-80
2022/08/17 09:25:27;;;;;;;12.90;9.63;;;17.80;99.90;;;;;;5060202;28;20033;-80
2022/08/17 09:28:18;;;;;;;11.55;10.23;;;17.70;99.90;;;;;;5053457;28;20045;-80
2022/08/17 09:30:54;;;;;;;16.00;10.48;;;17.70;99.90;;;;;;5045995;28;20045;-80
2022/08/17 09:33:26;;;;;;;16.98;12.65;;;17.60;99.90;;;;;;5044922;28;20010;-82
2022/08/17 09:36:01;;;;;;;15.00;12.73;;;17.60;99.90;;;;;;5047084;28;20057;-83
2022/08/17 09:38:58;;;;;;;17.50;12.77;;;17.70;99.90;;;;;;5048731;28;20499;-82
2022/08/17 09:41:49;;;;;;;12.90;11.18;;;17.70;99.90;;;;;;5037964;28;20549;-80
2022/08/17 09:44:52;;;;;;;17.55;12.85;;;17.60;99.90;;;;;;5059246;28;20005;-80
2022/08/17 09:47:35;;;;;;;13.32;10.05;;;17.50;99.90;;;;;;5046609;28;20013;-81
2022/08/17 09:50:15;;;;;;;15.23;12.43;;;17.40;99.90;;;;;;5059098;28;20014;-81
2022/08/17 09:52:42;;;;;;;11.82;9.18;;;17.40;99.90;;;;;;5051116;28;20028;-80
2022/08/17 09:55:08;;;;;;;11.07;8.75;;;17.40;99.90;;;;;;5061772;28;20040;-79
2022/08/17 09:58:03;;;;;;;16.30;12.90;;;17.30;99.90;;;;;;5057965;28;20036;-80
2022/08/17 10:00:39;;;;;;;15.05;13.45;;;17.40;99.90;;;;;;5053149;28;20016;-80
2022/08/17 10:03:33;;;;;;;16.92;13.75;;;17.30;99.90;;;;;;5041691;28;20157;-80
2022/08/17 10:06:14;;;;;;;14.98;12.65;;;17.40;99.90;;;;;;5058254;28;20045;-80
2022/08/17 10:08:51;;;;;;;14.15;11.52;;;17.30;99.90;;;;;;5058597;28;20018;-80
2022/08/17 10:14:49;;;;;;;11.38;7.95;;;17.40;99.90;;;;;;5037188;28;20037;-81
2022/08/17 10:17:26;;;;;;;10.57;7.47;;;17.30;99.90;;;;;;5050333;28;20064;-80
2022/08/17 10:20:08;;;;;;;13.18;10.32;;;17.30;99.90;;;;;;5056165;28;20036;-81
2022/08/17 10:28:34;;;;;;;14.35;9.13;;;17.50;99.90;;;;;;5052472;28;20028;-79
2022/08/17 10:31:02;;;;;;;12.70;9.60;;;17.60;99.90;;;;;;5058401;28;20034;-80
2022/08/17 10:33:46;;;;;;;14.85;11.18;;;17.70;99.90;;;;;;5057970;28;20318;-80
2022/08/17 10:36:25;;;;;;;13.50;11.63;;;17.90;99.90;;;;;;5057442;28;20045;-80
2022/08/17 10:39:11;;;;;;;8.23;6.60;;;18.20;99.90;;;;;;5052861;28;20064;-81
2022/08/17 10:41:45;;;;;;;11.75;9.75;;;18.30;99.90;;;;;;5014326;28;20042;-80
2022/08/17 10:44:24;;;;;;;11.93;9.25;;;18.40;99.90;;;;;;5047222;28;20034;-81
2022/08/17 10:47:00;;;;;;;9.68;8.25;;;18.50;99.90;;;;;;5046523;28;20044;-81
2022/08/17 10:49:37;;;;;;;15.85;11.13;;;18.60;99.90;;;;;;5052023;28;20037;-81
2022/08/17 10:52:29;;;;;;;15.32;13.07;;;18.80;99.90;;;;;;5053682;28;20009;-81
2022/08/17 10:54:57;;;;;;;9.27;7.55;;;19.00;99.90;;;;;;5050136;28;20005;-81
2022/08/17 10:57:26;;;;;;;10.48;9.38;;;18.80;99.90;;;;;;5051546;28;20037;-81
2022/08/17 10:59:54;;;;;;;12.70;10.35;;;18.90;99.90;;;;;;5052658;28;20020;-81
2022/08/17 11:02:26;;;;;;;11.23;9.13;;;19.20;99.90;;;;;;5053844;28;20025;-80
2022/08/17 11:05:29;;;;;;;10.75;8.80;;;19.40;99.90;;;;;;5056815;28;20006;-80
2022/08/17 11:08:34;;;;;;;13.32;11.30;;;19.70;76.90;;;;;;5052327;28;20077;-81
2022/08/17 11:11:34;;;;;;;12.15;10.40;;;19.70;99.90;;;;;;5048745;28;20018;-81
2022/08/17 11:14:30;;;;;;;13.32;11.43;;;19.80;75.90;;;;;;5047800;28;20040;-81
2022/08/17 11:17:40;;;;;;;10.23;7.78;;;19.90;55.30;;;;;;5048032;28;20065;-81
2022/08/17 11:20:41;;;;;;;12.77;9.35;;;19.80;16.40;;;;;;5044492;28;20025;-81
2022/08/17 11:23:29;;;;;;;10.95;8.20;;;19.70;1.00;;;;;;5053034;28;20022;-81
2022/08/17 11:25:57;;;;;;;9.32;7.38;;;19.60;1.00;;;;;;5051178;28;20037;-81
2022/08/17 11:28:34;;;;;;;9.95;8.30;;;19.50;1.00;;;;;;5053743;28;20018;-81
2022/08/17 11:31:08;;;;;;;12.23;9.63;;;19.50;1.00;;;;;;5052637;28;20030;-82
2022/08/17 11:33:34;;;;;;;12.93;8.95;;;19.50;1.00;;;;;;5048460;28;20061;-82
2022/08/17 11:36:14;;;;;;;13.18;10.73;;;19.80;1.00;;;;;;5046928;28;20037;-83
2022/08/17 11:39:04;;;;;;;11.40;8.52;;;19.90;1.00;;;;;;5045719;28;20474;-82
2022/08/17 11:41:41;;;;;;;9.50;8.50;;;20.00;1.00;;;;;;5027711;28;20032;-82
2022/08/17 11:44:09;;;;;;;9.00;7.38;;;19.90;1.00;;;;;;5044422;28;20105;-82
2022/08/17 11:52:37;;;;;;;12.95;10.20;;;20.40;1.00;;;;;;5048166;28;20040;-82
2022/08/17 11:55:04;;;;;;;10.07;9.07;;;20.60;99.90;;;;;;5048868;28;20026;-82
2022/08/17 11:57:29;;;;;;;15.07;9.57;;;20.70;99.90;;;;;;5048338;28;20073;-82
2022/08/17 12:00:10;;;;;;;12.63;9.35;;;20.90;99.90;;;;;;5049075;28;20025;-82
2022/08/17 12:02:44;;;;;;;11.05;8.52;;;20.80;99.90;;;;;;5053756;28;20025;-81
2022/08/17 12:05:13;;;;;;;10.65;7.40;;;21.20;99.90;;;;;;5047498;28;20025;-82
2022/08/17 12:08:04;;;;;;;10.30;8.77;;;21.20;99.90;;;;;;5051867;28;20084;-81
2022/08/17 12:10:34;;;;;;;14.18;8.27;;;21.40;99.90;;;;;;5049440;28;20029;-82
2022/08/17 12:13:11;;;;;;;9.45;8.45;;;21.40;99.90;;;;;;5048449;28;20345;-82
2022/08/17 12:15:49;;;;;;;13.05;7.45;;;21.50;99.90;;;;;;5046702;28;20034;-81
2022/08/17 12:18:48;;;;;;;9.88;7.13;;;21.40;99.90;;;;;;5035886;28;20069;-82
2022/08/17 12:21:33;;;;;;;13.93;9.15;;;21.20;99.90;;;;;;5045000;28;20077;-81
2022/08/17 12:24:09;;;;;;;10.32;9.23;;;21.40;99.90;;;;;;5054355;28;20029;-81
2022/08/17 12:26:37;;;;;;;11.95;8.20;;;21.60;99.90;;;;;;5054433;28;20030;-81
2022/08/17 12:29:10;;;;;;;11.25;8.63;;;21.80;99.90;;;;;;5052018;28;20022;-80
2022/08/17 12:31:43;;;;;;;9.07;6.80;;;21.60;99.90;;;;;;5051373;28;20021;-81
2022/08/17 12:34:16;;;;;;;10.95;9.25;;;21.60;99.90;;;;;;5055857;28;20029;-81
2022/08/17 12:36:42;;;;;;;9.75;7.45;;;21.90;99.90;;;;;;5057273;28;20120;-80
2022/08/17 12:39:08;;;;;;;10.55;7.90;;;21.90;99.90;;;;;;5055871;28;20075;-80
2022/08/17 12:41:41;;;;;;;10.93;7.85;;;21.80;99.90;;;;;;5057798;28;20040;-79
2022/08/17 12:44:30;;;;;;;9.48;7.75;;;21.80;99.90;;;;;;5056487;28;20017;-80
2022/08/17 12:46:59;;;;;;;6.95;5.82;;;21.90;99.90;;;;;;5056201;28;20025;-79
2022/08/17 12:49:38;;;;;;;10.05;7.47;;;21.70;99.90;;;;;;5056757;28;20101;-80
2022/08/17 12:52:03;;;;;;;11.32;6.57;;;21.90;99.90;;;;;;5051005;28;20045;-80
2022/08/17 12:54:51;;;;;;;13.65;6.65;;;21.60;99.90;;;;;;5055395;28;20021;-80
2022/08/17 12:57:24;;;;;;;7.75;6.20;;;21.50;99.90;;;;;;5058985;28;20045;-81
2022/08/17 12:59:57;;;;;;;8.82;5.60;;;21.20;99.90;;;;;;5060045;28;20033;-80
2022/08/17 13:02:52;;;;;;;5.95;5.05;;;21.20;99.90;;;;;;5057584;28;20033;-80
2022/08/17 13:05:28;;;;;;;5.70;4.22;;;21.10;99.90;;;;;;5053114;28;20044;-80
2022/08/17 13:07:56;;;;;;;8.60;6.10;;;21.00;99.90;;;;;;5056172;28;20524;-80
2022/08/17 13:10:25;;;;;;;6.72;6.03;;;20.90;99.90;;;;;;5058392;28;20026;-80
2022/08/17 13:12:51;;;;;;;6.95;6.22;;;21.10;99.90;;;;;;5058796;28;20060;-80
2022/08/17 13:15:33;;;;;;;6.88;4.13;;;21.00;99.90;;;;;;5057087;28;20034;-80
2022/08/17 13:18:28;;;;;;;8.98;6.32;;;21.00;99.90;;;;;;5058842;28;20060;-80
2022/08/17 13:20:57;;;;;;;8.73;5.82;;;21.30;99.90;;;;;;5055469;28;20075;-80
2022/08/17 13:23:25;;;;;;;6.25;5.00;;;21.60;99.90;;;;;;5059185;28;20014;-80
2022/08/17 13:26:02;;;;;;;8.55;5.70;;;21.60;99.90;;;;;;5059063;28;20013;-80
2022/08/17 13:28:29;;;;;;;8.73;6.18;;;21.60;99.90;;;;;;5057901;28;20029;-80
2022/08/17 13:31:22;;;;;;;7.57;5.65;;;21.90;99.90;;;;;;5058537;28;20021;-80
2022/08/17 13:33:49;;;;;;;4.72;4.25;;;21.90;99.90;;;;;;5044059;28;20045;-79
2022/08/17 13:36:30;;;;;;;6.63;5.35;;;22.00;99.90;;;;;;5047221;28;20068;-80
2022/08/17 13:39:13;;;;;;;8.23;5.90;;;22.20;99.90;;;;;;5040456;28;20049;-79